N132CA KSJC-KSAN
Flight info
| Callsign | N132CA |
|---|---|
| Flight time | 1h 10m |
| Altitude | 35000 |
| Route | TECKY4 VLREE EBAYE AVE FIM J1 LAX COMIX2 |
| Aircraft | E35L/M-SABDFGRW/S |
Departure
| Time | 2026-04-21 00:23 |
|---|---|
| Airport | Norman Y. Mineta San Jose International Airport (KSJC) |
Arrival
| Time | 2026-04-21 01:33 |
|---|---|
| Airport | San Diego International Airport (KSAN) |
| Time | Latitude | Longitude | Altitude | Speed | Heading |
|---|---|---|---|---|---|
| 2026-04-20 23:46 | 37.35905 | -121.93063 | 57 ft | 0 kts | 90° |
| 2026-04-21 00:07 | 37.35905 | -121.93062 | 57 ft | 1 kts | 90° |
| 2026-04-21 00:07 | 37.35915 | -121.93039 | 56 ft | 5 kts | 24° |
| 2026-04-21 00:08 | 37.35958 | -121.93072 | 56 ft | 10 kts | 317° |
| 2026-04-21 00:08 | 37.36008 | -121.93130 | 55 ft | 7 kts | 319° |
| 2026-04-21 00:08 | 37.36060 | -121.93185 | 55 ft | 11 kts | 318° |
| 2026-04-21 00:08 | 37.36101 | -121.93230 | 55 ft | 4 kts | 330° |
| 2026-04-21 00:09 | 37.36137 | -121.93207 | 55 ft | 8 kts | 49° |
| 2026-04-21 00:09 | 37.36176 | -121.93208 | 55 ft | 7 kts | 319° |
| 2026-04-21 00:09 | 37.36275 | -121.93317 | 53 ft | 22 kts | 318° |
| 2026-04-21 00:09 | 37.36357 | -121.93407 | 51 ft | 23 kts | 318° |
| 2026-04-21 00:10 | 37.36480 | -121.93543 | 49 ft | 23 kts | 317° |
| 2026-04-21 00:10 | 37.36580 | -121.93639 | 48 ft | 9 kts | 356° |
| 2026-04-21 00:10 | 37.36636 | -121.93592 | 48 ft | 6 kts | 13° |
| 2026-04-21 00:10 | 37.36690 | -121.93633 | 48 ft | 12 kts | 319° |
| 2026-04-21 00:11 | 37.36777 | -121.93730 | 46 ft | 20 kts | 317° |
| 2026-04-21 00:11 | 37.36884 | -121.93847 | 45 ft | 20 kts | 320° |
| 2026-04-21 00:11 | 37.37003 | -121.93976 | 45 ft | 24 kts | 318° |
| 2026-04-21 00:11 | 37.37118 | -121.94103 | 45 ft | 19 kts | 318° |
| 2026-04-21 00:12 | 37.37202 | -121.94180 | 45 ft | 13 kts | 353° |
| 2026-04-21 00:12 | 37.37277 | -121.94103 | 45 ft | 16 kts | 48° |
| 2026-04-21 00:12 | 37.37342 | -121.94012 | 45 ft | 4 kts | 48° |
| 2026-04-21 00:12 | 37.37354 | -121.93996 | 45 ft | 0 kts | 49° |
| 2026-04-21 00:21 | 37.37360 | -121.93986 | 45 ft | 4 kts | 49° |
| 2026-04-21 00:22 | 37.37396 | -121.93935 | 44 ft | 5 kts | 52° |
| 2026-04-21 00:22 | 37.37375 | -121.93881 | 43 ft | 9 kts | 139° |
| 2026-04-21 00:22 | 37.37289 | -121.93788 | 42 ft | 32 kts | 139° |
| 2026-04-21 00:22 | 37.37017 | -121.93456 | 42 ft | 71 kts | 152° |
| 2026-04-21 00:23 | 37.36497 | -121.92921 | 52 ft | 134 kts | 139° |
| 2026-04-21 00:23 | 37.35672 | -121.92031 | 460 ft | 172 kts | 144° |
| 2026-04-21 00:23 | 37.34674 | -121.91051 | 1290 ft | 198 kts | 146° |
| 2026-04-21 00:23 | 37.33556 | -121.89845 | 2304 ft | 225 kts | 142° |
| 2026-04-21 00:24 | 37.32367 | -121.88481 | 3384 ft | 245 kts | 142° |
| 2026-04-21 00:24 | 37.31103 | -121.87045 | 4591 ft | 250 kts | 142° |
| 2026-04-21 00:24 | 37.29838 | -121.85605 | 5819 ft | 252 kts | 142° |
| 2026-04-21 00:24 | 37.28579 | -121.84167 | 7244 ft | 248 kts | 142° |
| 2026-04-21 00:25 | 37.27337 | -121.82726 | 8447 ft | 251 kts | 142° |
| 2026-04-21 00:25 | 37.26072 | -121.81248 | 9635 ft | 254 kts | 142° |
| 2026-04-21 00:25 | 37.24779 | -121.79731 | 10639 ft | 263 kts | 142° |
| 2026-04-21 00:25 | 37.23420 | -121.78127 | 11573 ft | 274 kts | 141° |
| 2026-04-21 00:26 | 37.22301 | -121.76133 | 12449 ft | 298 kts | 119° |
| 2026-04-21 00:26 | 37.21596 | -121.73657 | 13379 ft | 309 kts | 116° |
| 2026-04-21 00:26 | 37.20870 | -121.71091 | 14241 ft | 319 kts | 116° |
| 2026-04-21 00:26 | 37.20123 | -121.68449 | 15089 ft | 329 kts | 117° |
| 2026-04-21 00:27 | 37.19361 | -121.65751 | 16033 ft | 335 kts | 117° |
| 2026-04-21 00:27 | 37.18575 | -121.62987 | 16899 ft | 340 kts | 119° |
| 2026-04-21 00:27 | 37.17371 | -121.60546 | 17787 ft | 326 kts | 141° |
| 2026-04-21 00:27 | 37.15641 | -121.58753 | 18625 ft | 326 kts | 147° |
| 2026-04-21 00:28 | 37.13931 | -121.56933 | 19535 ft | 329 kts | 147° |
| 2026-04-21 00:28 | 37.12194 | -121.55074 | 20328 ft | 335 kts | 147° |
| 2026-04-21 00:28 | 37.10408 | -121.53161 | 21118 ft | 340 kts | 147° |
| 2026-04-21 00:28 | 37.08615 | -121.51241 | 21901 ft | 344 kts | 147° |
| 2026-04-21 00:29 | 37.06775 | -121.49273 | 22619 ft | 350 kts | 147° |
| 2026-04-21 00:29 | 37.04939 | -121.47309 | 23420 ft | 353 kts | 147° |
| 2026-04-21 00:29 | 37.03056 | -121.45300 | 24172 ft | 358 kts | 147° |
| 2026-04-21 00:29 | 37.01172 | -121.43290 | 24887 ft | 363 kts | 147° |
| 2026-04-21 00:30 | 36.99231 | -121.41219 | 25631 ft | 367 kts | 147° |
| 2026-04-21 00:30 | 36.97306 | -121.39165 | 26570 ft | 365 kts | 147° |
| 2026-04-21 00:30 | 36.95392 | -121.37125 | 27418 ft | 365 kts | 147° |
| 2026-04-21 00:30 | 36.93478 | -121.35086 | 28313 ft | 364 kts | 147° |
| 2026-04-21 00:31 | 36.91548 | -121.33033 | 29182 ft | 362 kts | 148° |
| 2026-04-21 00:31 | 36.89655 | -121.31020 | 30064 ft | 360 kts | 148° |
| 2026-04-21 00:31 | 36.87741 | -121.28986 | 30834 ft | 362 kts | 148° |
| 2026-04-21 00:31 | 36.85853 | -121.26981 | 31700 ft | 359 kts | 148° |
| 2026-04-21 00:32 | 36.83964 | -121.24976 | 32540 ft | 358 kts | 148° |
| 2026-04-21 00:32 | 36.82056 | -121.22954 | 33271 ft | 359 kts | 148° |
| 2026-04-21 00:32 | 36.80170 | -121.20953 | 34070 ft | 358 kts | 148° |
| 2026-04-21 00:32 | 36.78282 | -121.18954 | 34900 ft | 357 kts | 148° |
| 2026-04-21 00:33 | 36.76359 | -121.16924 | 35004 ft | 374 kts | 147° |
| 2026-04-21 00:33 | 36.72396 | -121.12728 | 35014 ft | 372 kts | 147° |
| 2026-04-21 00:34 | 36.68401 | -121.08512 | 35032 ft | 385 kts | 147° |
| 2026-04-21 00:34 | 36.64221 | -121.04105 | 35035 ft | 400 kts | 147° |
| 2026-04-21 00:35 | 36.59880 | -120.99563 | 35036 ft | 412 kts | 148° |
| 2026-04-21 00:35 | 36.55470 | -120.95076 | 35030 ft | 409 kts | 147° |
| 2026-04-21 00:36 | 36.51104 | -120.90635 | 35032 ft | 404 kts | 147° |
| 2026-04-21 00:36 | 36.46762 | -120.86227 | 35031 ft | 403 kts | 147° |
| 2026-04-21 00:37 | 36.42384 | -120.81788 | 35043 ft | 408 kts | 147° |
| 2026-04-21 00:37 | 36.37986 | -120.77334 | 35034 ft | 412 kts | 147° |
| 2026-04-21 00:38 | 36.33541 | -120.72839 | 35038 ft | 408 kts | 147° |
| 2026-04-21 00:38 | 36.29165 | -120.68422 | 35037 ft | 405 kts | 147° |
| 2026-04-21 00:39 | 36.24829 | -120.64052 | 35028 ft | 402 kts | 147° |
| 2026-04-21 00:39 | 36.20488 | -120.59683 | 35029 ft | 405 kts | 147° |
| 2026-04-21 00:40 | 36.16067 | -120.55241 | 35032 ft | 412 kts | 147° |
| 2026-04-21 00:40 | 36.10845 | -120.50001 | 35036 ft | 420 kts | 147° |
| 2026-04-21 00:41 | 36.07043 | -120.46191 | 35038 ft | 422 kts | 146° |
| 2026-04-21 00:41 | 36.02467 | -120.41614 | 35037 ft | 425 kts | 146° |
| 2026-04-21 00:42 | 35.97915 | -120.37066 | 35031 ft | 418 kts | 146° |
| 2026-04-21 00:42 | 35.93447 | -120.32610 | 35027 ft | 412 kts | 147° |
| 2026-04-21 00:43 | 35.89010 | -120.28191 | 35030 ft | 407 kts | 147° |
| 2026-04-21 00:43 | 35.84827 | -120.23476 | 35042 ft | 411 kts | 140° |
| 2026-04-21 00:44 | 35.80867 | -120.18408 | 35037 ft | 409 kts | 140° |
| 2026-04-21 00:44 | 35.76920 | -120.13383 | 35020 ft | 408 kts | 140° |
| 2026-04-21 00:45 | 35.71006 | -120.05868 | 35037 ft | 406 kts | 141° |
| 2026-04-21 00:45 | 35.67062 | -120.00867 | 35042 ft | 410 kts | 140° |
| 2026-04-21 00:46 | 35.62810 | -119.96202 | 35043 ft | 406 kts | 152° |
| 2026-04-21 00:46 | 35.58167 | -119.92209 | 35050 ft | 412 kts | 151° |
| 2026-04-21 00:47 | 35.53443 | -119.88125 | 35056 ft | 416 kts | 151° |
| 2026-04-21 00:47 | 35.48718 | -119.84043 | 35047 ft | 415 kts | 151° |
| 2026-04-21 00:48 | 35.44027 | -119.79997 | 35058 ft | 413 kts | 151° |
| 2026-04-21 00:48 | 35.39306 | -119.75932 | 35049 ft | 412 kts | 151° |
| 2026-04-21 00:49 | 35.34656 | -119.71932 | 35071 ft | 410 kts | 151° |
| 2026-04-21 00:49 | 35.29996 | -119.67931 | 35070 ft | 410 kts | 151° |
| 2026-04-21 00:50 | 35.25315 | -119.63917 | 35066 ft | 409 kts | 151° |
| 2026-04-21 00:50 | 35.20649 | -119.59922 | 35056 ft | 409 kts | 151° |
| 2026-04-21 00:51 | 35.16011 | -119.55956 | 35060 ft | 408 kts | 151° |
| 2026-04-21 00:51 | 35.11360 | -119.51986 | 35057 ft | 408 kts | 151° |
| 2026-04-21 00:52 | 35.06718 | -119.48027 | 35065 ft | 407 kts | 151° |
| 2026-04-21 00:52 | 35.02080 | -119.44079 | 35071 ft | 407 kts | 151° |
| 2026-04-21 00:53 | 34.97446 | -119.40139 | 35066 ft | 406 kts | 151° |
| 2026-04-21 00:53 | 34.92811 | -119.36203 | 35076 ft | 406 kts | 151° |
| 2026-04-21 00:54 | 34.88168 | -119.32267 | 35095 ft | 406 kts | 151° |
| 2026-04-21 00:54 | 34.83529 | -119.28340 | 35096 ft | 406 kts | 151° |
| 2026-04-21 00:55 | 34.78892 | -119.24419 | 35113 ft | 407 kts | 152° |
| 2026-04-21 00:55 | 34.74245 | -119.20496 | 35142 ft | 406 kts | 151° |
| 2026-04-21 00:56 | 34.69603 | -119.16582 | 35153 ft | 407 kts | 151° |
| 2026-04-21 00:56 | 34.64964 | -119.12677 | 35149 ft | 407 kts | 151° |
| 2026-04-21 00:57 | 34.60299 | -119.08755 | 35156 ft | 407 kts | 151° |
| 2026-04-21 00:57 | 34.55657 | -119.04858 | 35158 ft | 407 kts | 151° |
| 2026-04-21 00:58 | 34.51016 | -119.00966 | 35151 ft | 408 kts | 151° |
| 2026-04-21 00:58 | 34.46320 | -118.97035 | 35121 ft | 408 kts | 151° |
| 2026-04-21 00:59 | 34.41659 | -118.93137 | 35096 ft | 409 kts | 151° |
| 2026-04-21 00:59 | 34.36990 | -118.89239 | 35088 ft | 409 kts | 151° |
| 2026-04-21 01:00 | 34.32555 | -118.84827 | 35084 ft | 414 kts | 144° |
| 2026-04-21 01:00 | 34.28242 | -118.80216 | 35089 ft | 414 kts | 144° |
| 2026-04-21 01:01 | 34.23930 | -118.75623 | 35081 ft | 414 kts | 144° |
| 2026-04-21 01:01 | 34.19638 | -118.71060 | 35088 ft | 414 kts | 144° |
| 2026-04-21 01:02 | 34.15308 | -118.66463 | 35085 ft | 414 kts | 144° |
| 2026-04-21 01:02 | 34.10998 | -118.61893 | 35086 ft | 414 kts | 144° |
| 2026-04-21 01:03 | 34.06681 | -118.57323 | 35086 ft | 414 kts | 144° |
| 2026-04-21 01:03 | 34.02350 | -118.52743 | 35088 ft | 413 kts | 144° |
| 2026-04-21 01:04 | 33.98027 | -118.48179 | 35086 ft | 414 kts | 144° |
| 2026-04-21 01:04 | 33.93726 | -118.43640 | 35089 ft | 414 kts | 143° |
| 2026-04-21 01:05 | 33.89720 | -118.38557 | 35096 ft | 418 kts | 138° |
| 2026-04-21 01:05 | 33.87737 | -118.35984 | 34778 ft | 424 kts | 138° |
| 2026-04-21 01:05 | 33.85722 | -118.33375 | 34316 ft | 428 kts | 138° |
| 2026-04-21 01:06 | 33.83690 | -118.30746 | 33831 ft | 430 kts | 138° |
| 2026-04-21 01:06 | 33.81682 | -118.28150 | 33354 ft | 430 kts | 138° |
| 2026-04-21 01:06 | 33.79642 | -118.25516 | 32831 ft | 429 kts | 138° |
| 2026-04-21 01:06 | 33.77635 | -118.22922 | 32296 ft | 421 kts | 137° |
| 2026-04-21 01:07 | 33.75675 | -118.20345 | 31749 ft | 413 kts | 137° |
| 2026-04-21 01:07 | 33.73758 | -118.17825 | 31209 ft | 405 kts | 137° |
| 2026-04-21 01:07 | 33.71899 | -118.15382 | 30670 ft | 398 kts | 136° |
| 2026-04-21 01:07 | 33.70029 | -118.12926 | 30128 ft | 393 kts | 136° |
| 2026-04-21 01:08 | 33.68194 | -118.10518 | 29588 ft | 389 kts | 136° |
| 2026-04-21 01:08 | 33.66393 | -118.08157 | 29061 ft | 385 kts | 136° |
| 2026-04-21 01:08 | 33.64595 | -118.05801 | 28531 ft | 382 kts | 136° |
| 2026-04-21 01:08 | 33.62805 | -118.03457 | 28051 ft | 379 kts | 136° |
| 2026-04-21 01:09 | 33.61052 | -118.01162 | 27580 ft | 376 kts | 136° |
| 2026-04-21 01:09 | 33.59290 | -117.98859 | 27099 ft | 373 kts | 136° |
| 2026-04-21 01:09 | 33.57545 | -117.96578 | 26621 ft | 370 kts | 136° |
| 2026-04-21 01:09 | 33.55800 | -117.94299 | 26142 ft | 367 kts | 136° |
| 2026-04-21 01:10 | 33.54059 | -117.92133 | 25668 ft | 362 kts | 140° |
| 2026-04-21 01:10 | 33.52241 | -117.90052 | 25192 ft | 359 kts | 140° |
| 2026-04-21 01:10 | 33.50470 | -117.88003 | 24722 ft | 356 kts | 140° |
| 2026-04-21 01:10 | 33.48683 | -117.85934 | 24242 ft | 354 kts | 140° |
| 2026-04-21 01:11 | 33.46938 | -117.83910 | 23706 ft | 352 kts | 140° |
| 2026-04-21 01:11 | 33.45186 | -117.81879 | 23098 ft | 347 kts | 140° |
| 2026-04-21 01:11 | 33.43459 | -117.79930 | 22492 ft | 340 kts | 142° |
| 2026-04-21 01:11 | 33.41700 | -117.78055 | 21884 ft | 336 kts | 142° |
| 2026-04-21 01:12 | 33.39988 | -117.76224 | 21310 ft | 331 kts | 142° |
| 2026-04-21 01:12 | 33.38279 | -117.74397 | 20753 ft | 327 kts | 142° |
| 2026-04-21 01:12 | 33.36592 | -117.72594 | 20183 ft | 322 kts | 142° |
| 2026-04-21 01:12 | 33.34936 | -117.70824 | 19720 ft | 317 kts | 142° |
| 2026-04-21 01:13 | 33.33309 | -117.69089 | 19259 ft | 315 kts | 142° |
| 2026-04-21 01:13 | 33.31683 | -117.67355 | 18831 ft | 314 kts | 142° |
| 2026-04-21 01:13 | 33.30060 | -117.65624 | 18385 ft | 312 kts | 142° |
| 2026-04-21 01:13 | 33.28448 | -117.63906 | 17912 ft | 312 kts | 142° |
| 2026-04-21 01:14 | 33.26831 | -117.62184 | 17427 ft | 312 kts | 142° |
| 2026-04-21 01:14 | 33.25220 | -117.60469 | 16952 ft | 312 kts | 142° |
| 2026-04-21 01:14 | 33.23599 | -117.58760 | 16469 ft | 311 kts | 142° |
| 2026-04-21 01:14 | 33.21963 | -117.57037 | 15984 ft | 311 kts | 142° |
| 2026-04-21 01:15 | 33.20368 | -117.55357 | 15511 ft | 310 kts | 141° |
| 2026-04-21 01:15 | 33.18755 | -117.53658 | 15030 ft | 309 kts | 142° |
| 2026-04-21 01:15 | 33.17134 | -117.51953 | 14544 ft | 308 kts | 141° |
| 2026-04-21 01:15 | 33.15531 | -117.50268 | 14062 ft | 307 kts | 141° |
| 2026-04-21 01:16 | 33.13940 | -117.48601 | 13582 ft | 305 kts | 143° |
| 2026-04-21 01:16 | 33.12235 | -117.47124 | 13103 ft | 302 kts | 148° |
| 2026-04-21 01:16 | 33.10507 | -117.45684 | 12616 ft | 301 kts | 147° |
| 2026-04-21 01:16 | 33.08793 | -117.44256 | 12127 ft | 300 kts | 147° |
| 2026-04-21 01:17 | 33.07087 | -117.42835 | 11595 ft | 299 kts | 147° |
| 2026-04-21 01:17 | 33.05401 | -117.41431 | 11106 ft | 296 kts | 147° |
| 2026-04-21 01:17 | 33.03718 | -117.40020 | 10637 ft | 293 kts | 146° |
| 2026-04-21 01:17 | 33.02089 | -117.38653 | 10260 ft | 287 kts | 146° |
| 2026-04-21 01:18 | 33.00467 | -117.37292 | 9890 ft | 283 kts | 146° |
| 2026-04-21 01:18 | 32.98875 | -117.35957 | 9596 ft | 279 kts | 146° |
| 2026-04-21 01:18 | 32.97303 | -117.34640 | 9402 ft | 275 kts | 146° |
| 2026-04-21 01:18 | 32.95737 | -117.33328 | 9250 ft | 273 kts | 146° |
| 2026-04-21 01:19 | 32.94190 | -117.32032 | 9091 ft | 271 kts | 146° |
| 2026-04-21 01:19 | 32.92646 | -117.30739 | 8939 ft | 268 kts | 146° |
| 2026-04-21 01:19 | 32.91143 | -117.29485 | 8794 ft | 265 kts | 146° |
| 2026-04-21 01:19 | 32.89629 | -117.28225 | 8664 ft | 262 kts | 146° |
| 2026-04-21 01:20 | 32.88140 | -117.26987 | 8570 ft | 262 kts | 146° |
| 2026-04-21 01:20 | 32.86634 | -117.25736 | 8344 ft | 265 kts | 146° |
| 2026-04-21 01:20 | 32.85121 | -117.24479 | 8004 ft | 263 kts | 146° |
| 2026-04-21 01:20 | 32.83627 | -117.23238 | 7684 ft | 260 kts | 146° |
| 2026-04-21 01:21 | 32.82153 | -117.22008 | 7365 ft | 260 kts | 144° |
| 2026-04-21 01:21 | 32.81015 | -117.20343 | 7045 ft | 262 kts | 114° |
| 2026-04-21 01:21 | 32.80522 | -117.18269 | 6747 ft | 264 kts | 105° |
| 2026-04-21 01:21 | 32.80049 | -117.16135 | 6434 ft | 265 kts | 106° |
| 2026-04-21 01:22 | 32.79583 | -117.14040 | 6202 ft | 263 kts | 106° |
| 2026-04-21 01:22 | 32.79120 | -117.11962 | 6071 ft | 260 kts | 106° |
| 2026-04-21 01:22 | 32.78657 | -117.09892 | 6054 ft | 258 kts | 106° |
| 2026-04-21 01:22 | 32.78197 | -117.07831 | 6055 ft | 260 kts | 106° |
| 2026-04-21 01:23 | 32.77719 | -117.05745 | 6057 ft | 262 kts | 107° |
| 2026-04-21 01:23 | 32.77211 | -117.03664 | 6055 ft | 264 kts | 107° |
| 2026-04-21 01:23 | 32.76702 | -117.01571 | 6051 ft | 265 kts | 107° |
| 2026-04-21 01:23 | 32.76205 | -116.99441 | 6054 ft | 266 kts | 105° |
| 2026-04-21 01:24 | 32.75720 | -116.97311 | 6058 ft | 267 kts | 105° |
| 2026-04-21 01:24 | 32.75239 | -116.95188 | 6056 ft | 268 kts | 106° |
| 2026-04-21 01:24 | 32.74750 | -116.93037 | 6057 ft | 269 kts | 106° |
| 2026-04-21 01:24 | 32.74264 | -116.90904 | 6059 ft | 270 kts | 105° |
| 2026-04-21 01:25 | 32.73774 | -116.88734 | 6053 ft | 271 kts | 105° |
| 2026-04-21 01:25 | 32.73288 | -116.86576 | 6052 ft | 272 kts | 105° |
| 2026-04-21 01:25 | 32.72800 | -116.84418 | 6062 ft | 272 kts | 106° |
| 2026-04-21 01:25 | 32.72312 | -116.82233 | 6065 ft | 272 kts | 105° |
| 2026-04-21 01:26 | 32.71829 | -116.80064 | 6063 ft | 273 kts | 105° |
| 2026-04-21 01:26 | 32.71342 | -116.77878 | 5960 ft | 277 kts | 105° |
| 2026-04-21 01:26 | 32.70614 | -116.75758 | 5838 ft | 278 kts | 127° |
| 2026-04-21 01:26 | 32.69156 | -116.74313 | 5733 ft | 277 kts | 156° |
| 2026-04-21 01:27 | 32.67277 | -116.73910 | 5624 ft | 277 kts | 185° |
| 2026-04-21 01:27 | 32.65457 | -116.74677 | 5512 ft | 278 kts | 215° |
| 2026-04-21 01:27 | 32.64220 | -116.76381 | 5404 ft | 279 kts | 244° |
| 2026-04-21 01:27 | 32.63548 | -116.78542 | 5286 ft | 278 kts | 251° |
| 2026-04-21 01:28 | 32.62928 | -116.80674 | 5081 ft | 271 kts | 251° |
| 2026-04-21 01:28 | 32.62322 | -116.82745 | 5051 ft | 258 kts | 251° |
| 2026-04-21 01:28 | 32.61742 | -116.84727 | 5050 ft | 251 kts | 251° |
| 2026-04-21 01:28 | 32.61383 | -116.86713 | 5051 ft | 248 kts | 272° |
| 2026-04-21 01:29 | 32.61916 | -116.88648 | 5076 ft | 249 kts | 300° |
| 2026-04-21 01:29 | 32.62814 | -116.90390 | 5064 ft | 251 kts | 301° |
| 2026-04-21 01:29 | 32.63738 | -116.92172 | 5057 ft | 252 kts | 301° |
| 2026-04-21 01:29 | 32.64656 | -116.93943 | 5053 ft | 253 kts | 301° |
| 2026-04-21 01:30 | 32.65577 | -116.95721 | 5054 ft | 254 kts | 301° |
| 2026-04-21 01:30 | 32.66514 | -116.97527 | 5060 ft | 255 kts | 301° |
| 2026-04-21 01:30 | 32.67435 | -116.99312 | 5057 ft | 256 kts | 301° |
| 2026-04-21 01:30 | 32.68368 | -117.01118 | 5056 ft | 256 kts | 301° |
| 2026-04-21 01:31 | 32.69304 | -117.02921 | 4896 ft | 261 kts | 301° |
| 2026-04-21 01:31 | 32.70265 | -117.04775 | 4655 ft | 263 kts | 301° |
| 2026-04-21 01:31 | 32.71222 | -117.06633 | 4267 ft | 267 kts | 301° |
| 2026-04-21 01:31 | 32.71832 | -117.08689 | 3580 ft | 271 kts | 279° |
| 2026-04-21 01:32 | 32.71928 | -117.10883 | 2401 ft | 265 kts | 271° |
| 2026-04-21 01:32 | 32.71941 | -117.13024 | 973 ft | 257 kts | 280° |
| 2026-04-21 01:32 | 32.72365 | -117.14885 | 623 ft | 206 kts | 287° |
| 2026-04-21 01:32 | 32.72720 | -117.16330 | 444 ft | 160 kts | 285° |
| 2026-04-21 01:33 | 32.72995 | -117.17490 | 171 ft | 133 kts | 285° |
| 2026-04-21 01:33 | 32.73228 | -117.18452 | 26 ft | 109 kts | 285° |
| 2026-04-21 01:33 | 32.73414 | -117.19212 | 23 ft | 80 kts | 285° |
| 2026-04-21 01:33 | 32.73538 | -117.19720 | 20 ft | 48 kts | 286° |
| 2026-04-21 01:34 | 32.73609 | -117.20033 | 19 ft | 29 kts | 285° |
| 2026-04-21 01:34 | 32.73621 | -117.20171 | 19 ft | 10 kts | 250° |
| 2026-04-21 01:34 | 32.73579 | -117.20216 | 19 ft | 7 kts | 195° |
| 2026-04-21 01:34 | 32.73575 | -117.20217 | 19 ft | 0 kts | 195° |
| 2026-04-21 01:38 | 32.73574 | -117.20217 | 19 ft | 0 kts | 195° |
| 2026-04-21 01:39 | 32.73557 | -117.20213 | 19 ft | 4 kts | 129° |
| 2026-04-21 01:39 | 32.73543 | -117.20157 | 19 ft | 9 kts | 107° |
| 2026-04-21 01:39 | 32.73519 | -117.20062 | 19 ft | 14 kts | 106° |
| 2026-04-21 01:39 | 32.73487 | -117.19930 | 19 ft | 19 kts | 106° |
| 2026-04-21 01:40 | 32.73450 | -117.19778 | 20 ft | 17 kts | 107° |
| 2026-04-21 01:40 | 32.73411 | -117.19621 | 21 ft | 21 kts | 106° |
| 2026-04-21 01:40 | 32.73367 | -117.19442 | 23 ft | 22 kts | 105° |
| 2026-04-21 01:40 | 32.73328 | -117.19281 | 23 ft | 15 kts | 106° |
| 2026-04-21 01:41 | 32.73314 | -117.19191 | 22 ft | 10 kts | 73° |
| 2026-04-21 01:41 | 32.73331 | -117.19168 | 23 ft | 5 kts | 36° |
| 2026-04-21 01:41 | 32.73378 | -117.19137 | 23 ft | 11 kts | 28° |
| 2026-04-21 01:41 | 32.73465 | -117.19081 | 23 ft | 12 kts | 35° |
| 2026-04-21 01:42 | 32.73471 | -117.18973 | 23 ft | 16 kts | 106° |
| 2026-04-21 01:42 | 32.73435 | -117.18824 | 23 ft | 21 kts | 106° |
| 2026-04-21 01:42 | 32.73393 | -117.18651 | 23 ft | 21 kts | 106° |
| 2026-04-21 01:42 | 32.73352 | -117.18480 | 23 ft | 21 kts | 106° |
| 2026-04-21 01:43 | 32.73311 | -117.18309 | 22 ft | 23 kts | 106° |
| 2026-04-21 01:43 | 32.73270 | -117.18140 | 22 ft | 19 kts | 106° |
| 2026-04-21 01:43 | 32.73239 | -117.18010 | 23 ft | 8 kts | 89° |
| 2026-04-21 01:43 | 32.73299 | -117.17970 | 23 ft | 12 kts | 16° |
| 2026-04-21 01:44 | 32.73368 | -117.17946 | 25 ft | 5 kts | 40° |
| 2026-04-21 01:44 | 32.73362 | -117.17887 | 26 ft | 9 kts | 106° |
| 2026-04-21 01:44 | 32.73357 | -117.17869 | 26 ft | 0 kts | 106° |
| 2026-04-21 01:45 | 32.73358 | -117.17873 | 26 ft | 3 kts | 106° |
| 2026-04-21 01:45 | 32.73363 | -117.17894 | 26 ft | 1 kts | 106° |
| 2026-04-21 01:45 | 32.73364 | -117.17898 | 26 ft | 0 kts | 106° |